Time;durP1;ratioP1;P1;durP2;ratioP2;P2;SDS_P1;SDS_P2;PMS_P1;PMS_P2;Temp;Humidity;BMP_temperature;BMP_pressure;BME280_temperature;BME280_humidity;BME280_pressure;Samples;Min_cycle;Max_cycle;Signal;HPM_P1;HPM_P2
2022/02/23 00:00:23;;;;;;;14.40;4.63;;;9.20;99.90;;;;;;5096542;28;20371;-74
2022/02/23 00:02:49;;;;;;;21.92;6.20;;;9.20;99.90;;;;;;5096531;28;20021;-70
2022/02/23 00:05:14;;;;;;;20.85;6.25;;;9.20;99.90;;;;;;5096024;28;20048;-70
2022/02/23 00:07:40;;;;;;;15.40;4.47;;;9.20;99.90;;;;;;5096403;28;20086;-70
2022/02/23 00:10:06;;;;;;;17.52;4.80;;;9.20;99.90;;;;;;5096081;28;20386;-72
2022/02/23 00:12:32;;;;;;;18.20;4.70;;;9.20;99.90;;;;;;5096027;28;20077;-72
2022/02/23 00:14:59;;;;;;;15.85;5.20;;;9.20;99.90;;;;;;5095984;28;20515;-73
2022/02/23 00:17:25;;;;;;;14.65;5.05;;;9.10;99.90;;;;;;5096111;28;20367;-71
2022/02/23 00:19:55;;;;;;;19.73;5.78;;;9.10;99.90;;;;;;5095900;28;20142;-74
2022/02/23 00:22:20;;;;;;;20.90;4.57;;;9.10;99.90;;;;;;5096132;28;20478;-73
2022/02/23 00:24:46;;;;;;;15.88;5.68;;;9.10;99.90;;;;;;5095630;28;20027;-71
2022/02/23 00:27:12;;;;;;;16.33;4.75;;;9.00;99.90;;;;;;5095480;28;20028;-71
2022/02/23 00:29:38;;;;;;;13.48;4.30;;;9.00;99.90;;;;;;5095738;28;20024;-75
2022/02/23 00:32:05;;;;;;;25.05;5.97;;;9.00;99.90;;;;;;5095697;28;20020;-71
2022/02/23 00:34:30;;;;;;;15.52;5.20;;;9.00;99.90;;;;;;5096171;28;20413;-72
2022/02/23 00:36:56;;;;;;;19.65;5.07;;;9.00;99.90;;;;;;5095772;28;20059;-72
2022/02/23 00:39:23;;;;;;;20.10;4.88;;;9.00;99.90;;;;;;5095779;28;20016;-75
2022/02/23 00:41:49;;;;;;;18.42;5.35;;;8.90;99.90;;;;;;5095506;28;20035;-72
2022/02/23 00:44:15;;;;;;;18.20;5.20;;;8.90;99.90;;;;;;5095420;28;20401;-70
2022/02/23 00:46:41;;;;;;;16.48;4.45;;;8.90;99.90;;;;;;5095400;28;20024;-71
2022/02/23 00:49:07;;;;;;;16.55;4.60;;;8.90;99.90;;;;;;5095326;28;20035;-73
2022/02/23 00:51:33;;;;;;;22.23;5.10;;;8.90;99.90;;;;;;5095240;28;20390;-72
2022/02/23 00:53:59;;;;;;;12.45;4.32;;;8.90;99.90;;;;;;5095435;28;20031;-73
2022/02/23 00:56:25;;;;;;;16.05;4.18;;;8.80;99.90;;;;;;5095203;28;20028;-72
2022/02/23 00:58:51;;;;;;;19.15;5.10;;;8.70;99.90;;;;;;5095076;28;20382;-71
2022/02/23 01:01:16;;;;;;;13.98;4.35;;;8.60;99.90;;;;;;5095116;28;20016;-72
2022/02/23 01:03:42;;;;;;;16.42;5.03;;;8.50;99.90;;;;;;5095100;28;20488;-71
2022/02/23 01:06:08;;;;;;;23.15;5.32;;;8.50;99.90;;;;;;5095260;28;20020;-71
2022/02/23 01:08:33;;;;;;;29.80;5.10;;;8.50;99.90;;;;;;5095255;28;20028;-73
2022/02/23 01:10:59;;;;;;;17.05;4.75;;;8.50;99.90;;;;;;5095192;28;20028;-73
2022/02/23 01:13:26;;;;;;;14.70;5.38;;;8.50;99.90;;;;;;5094842;28;20062;-72
2022/02/23 01:15:51;;;;;;;16.77;4.85;;;8.50;99.90;;;;;;5094764;28;20028;-70
2022/02/23 01:18:17;;;;;;;12.82;4.45;;;8.30;99.90;;;;;;5094691;28;20039;-72
2022/02/23 01:20:43;;;;;;;13.23;4.65;;;8.20;99.90;;;;;;5093420;28;20024;-71
2022/02/23 01:23:08;;;;;;;16.98;3.85;;;8.10;99.90;;;;;;5094652;28;20511;-74
2022/02/23 01:25:34;;;;;;;16.85;5.45;;;8.10;99.90;;;;;;5094877;28;20036;-73
2022/02/23 01:28:02;;;;;;;16.95;4.60;;;8.20;99.90;;;;;;5095136;28;20028;-74
2022/02/23 01:30:29;;;;;;;18.75;4.80;;;8.10;99.90;;;;;;5094456;28;20032;-74
2022/02/23 01:32:54;;;;;;;20.92;5.97;;;8.10;99.90;;;;;;5094483;28;20070;-70
2022/02/23 01:35:21;;;;;;;16.13;4.55;;;8.20;99.90;;;;;;5094422;28;20023;-72
2022/02/23 01:37:46;;;;;;;17.67;5.30;;;8.20;99.90;;;;;;5093782;28;20035;-72
2022/02/23 01:40:13;;;;;;;24.65;5.68;;;8.20;99.90;;;;;;5094343;28;20024;-73
2022/02/23 01:42:39;;;;;;;17.52;4.75;;;8.30;99.90;;;;;;5094589;28;20024;-71
2022/02/23 01:45:05;;;;;;;12.45;4.38;;;8.40;99.90;;;;;;5094258;28;20047;-73
2022/02/23 01:47:31;;;;;;;16.55;4.50;;;8.40;99.90;;;;;;5094222;28;20501;-72
2022/02/23 01:49:57;;;;;;;15.27;4.28;;;8.30;99.90;;;;;;5094190;28;20024;-73
2022/02/23 01:52:25;;;;;;;15.48;4.57;;;8.30;99.90;;;;;;5094466;28;20024;-74
2022/02/23 01:54:55;;;;;;;16.73;4.65;;;8.20;99.90;;;;;;5094198;28;20020;-70
2022/02/23 01:57:21;;;;;;;18.48;5.07;;;8.30;99.90;;;;;;5093934;28;20424;-69
2022/02/23 01:59:48;;;;;;;15.93;5.15;;;8.30;99.90;;;;;;5094008;28;20028;-73
2022/02/23 02:02:13;;;;;;;12.25;4.70;;;8.30;99.90;;;;;;5093882;28;20057;-71
2022/02/23 02:04:39;;;;;;;16.20;4.82;;;8.30;99.90;;;;;;5093890;28;20063;-71
2022/02/23 02:07:05;;;;;;;17.30;5.30;;;8.20;99.90;;;;;;5093649;28;20657;-69
2022/02/23 02:09:30;;;;;;;17.52;5.43;;;8.20;99.90;;;;;;5093818;28;20497;-71
2022/02/23 02:11:56;;;;;;;15.80;4.50;;;8.20;99.90;;;;;;5093754;28;20382;-71
2022/02/23 02:14:22;;;;;;;14.27;4.82;;;8.20;99.90;;;;;;5094073;28;20020;-70
2022/02/23 02:16:48;;;;;;;17.92;6.50;;;8.20;99.90;;;;;;5093745;28;20020;-70
2022/02/23 02:19:13;;;;;;;19.23;7.38;;;8.20;99.90;;;;;;5093660;28;20525;-71
2022/02/23 02:21:59;;;;;;;18.55;6.43;;;8.20;99.90;;;;;;5093690;28;20026;-72
2022/02/23 02:24:30;;;;;;;15.13;5.43;;;8.10;99.90;;;;;;5093579;28;20476;-70
2022/02/23 02:26:57;;;;;;;18.88;5.13;;;8.10;99.90;;;;;;5093846;28;20024;-74
2022/02/23 02:29:24;;;;;;;20.25;5.22;;;8.10;99.90;;;;;;5093559;28;20028;-73
2022/02/23 02:31:51;;;;;;;19.00;5.72;;;8.10;99.90;;;;;;5094003;28;20020;-73
2022/02/23 02:34:17;;;;;;;15.45;4.35;;;8.20;99.90;;;;;;5093447;28;20020;-70
2022/02/23 02:36:43;;;;;;;13.13;4.93;;;8.20;99.90;;;;;;5093724;28;20051;-73
2022/02/23 02:39:09;;;;;;;20.10;4.70;;;8.20;99.90;;;;;;5093321;28;20421;-70
2022/02/23 02:41:35;;;;;;;15.77;4.30;;;8.20;99.90;;;;;;5093607;28;20027;-69
2022/02/23 02:44:02;;;;;;;18.55;4.80;;;8.20;99.90;;;;;;5093349;28;20363;-69
2022/02/23 02:46:28;;;;;;;19.40;5.45;;;8.20;99.90;;;;;;5093283;28;20482;-72
2022/02/23 02:48:54;;;;;;;12.75;4.00;;;8.10;99.90;;;;;;5093410;28;20073;-73
2022/02/23 02:51:20;;;;;;;13.77;3.67;;;8.20;99.90;;;;;;5093555;28;20478;-72
2022/02/23 02:53:45;;;;;;;18.42;4.68;;;8.10;99.90;;;;;;5093217;28;20107;-72
2022/02/23 02:56:11;;;;;;;15.57;4.25;;;8.10;99.90;;;;;;5093123;28;20020;-73
2022/02/23 02:58:37;;;;;;;15.40;4.15;;;8.00;99.90;;;;;;5093105;28;20078;-73
2022/02/23 03:01:04;;;;;;;10.95;4.60;;;8.00;99.90;;;;;;5093185;28;20047;-73
2022/02/23 03:03:29;;;;;;;16.08;4.57;;;8.00;99.90;;;;;;5091884;28;20079;-73
2022/02/23 03:05:55;;;;;;;12.93;4.05;;;8.00;99.90;;;;;;5092983;28;20113;-71
2022/02/23 03:08:20;;;;;;;19.42;5.03;;;8.00;99.90;;;;;;5093085;28;20031;-74
2022/02/23 03:10:46;;;;;;;22.13;4.75;;;7.90;99.90;;;;;;5093593;28;20070;-71
2022/02/23 03:13:12;;;;;;;16.52;4.68;;;7.90;99.90;;;;;;5093036;28;20367;-71
2022/02/23 03:15:37;;;;;;;12.73;4.05;;;7.90;99.90;;;;;;5093316;28;20031;-70
2022/02/23 03:18:04;;;;;;;13.68;3.42;;;7.90;99.90;;;;;;5093226;28;20029;-69
2022/02/23 03:20:32;;;;;;;9.07;3.80;;;7.90;99.90;;;;;;5093016;28;20024;-71
2022/02/23 03:22:57;;;;;;;15.02;4.30;;;7.80;99.90;;;;;;5092959;28;20020;-73
2022/02/23 03:25:23;;;;;;;13.85;3.53;;;7.80;99.90;;;;;;5093287;28;20031;-74
2022/02/23 03:27:49;;;;;;;20.33;4.60;;;7.90;99.90;;;;;;5092941;28;20393;-73
2022/02/23 03:30:15;;;;;;;15.00;3.58;;;7.80;99.90;;;;;;5092900;28;20055;-72
2022/02/23 03:32:40;;;;;;;22.17;5.60;;;8.00;99.90;;;;;;5093170;28;20070;-71
2022/02/23 03:35:07;;;;;;;13.02;4.00;;;8.10;99.90;;;;;;5093409;28;20047;-72
2022/02/23 03:37:32;;;;;;;16.35;4.00;;;8.10;99.90;;;;;;5093285;28;20028;-74
2022/02/23 03:39:58;;;;;;;12.30;3.95;;;8.10;99.90;;;;;;5093090;28;20382;-71
2022/02/23 03:42:24;;;;;;;10.82;3.60;;;7.90;99.90;;;;;;5093371;28;20048;-71
2022/02/23 03:44:50;;;;;;;19.33;5.32;;;7.80;99.90;;;;;;5092802;28;20054;-73
2022/02/23 03:47:15;;;;;;;15.25;4.63;;;7.80;99.90;;;;;;5092766;28;20563;-73
2022/02/23 03:49:41;;;;;;;18.35;4.22;;;7.90;99.90;;;;;;5091467;28;20038;-71
2022/02/23 03:52:07;;;;;;;14.63;4.70;;;8.00;99.90;;;;;;5093023;28;20478;-73
2022/02/23 03:54:33;;;;;;;12.55;3.97;;;8.10;99.90;;;;;;5093200;28;20024;-72
2022/02/23 03:56:59;;;;;;;13.90;4.07;;;8.10;99.90;;;;;;5093167;28;20088;-74
2022/02/23 03:59:25;;;;;;;12.18;4.00;;;8.10;99.90;;;;;;5092646;28;20031;-71
2022/02/23 04:01:51;;;;;;;19.55;5.03;;;7.90;99.90;;;;;;5095527;28;20023;-71
2022/02/23 04:04:17;;;;;;;13.05;4.22;;;7.80;99.90;;;;;;5096025;28;20051;-72
2022/02/23 04:06:43;;;;;;;15.50;4.28;;;7.90;99.90;;;;;;5096210;28;20512;-72
2022/02/23 04:09:10;;;;;;;15.15;3.83;;;7.90;99.90;;;;;;5096133;28;20066;-72
2022/02/23 04:11:36;;;;;;;16.40;3.92;;;7.90;99.90;;;;;;5096064;28;20032;-71
2022/02/23 04:14:03;;;;;;;15.02;3.90;;;8.00;99.90;;;;;;5096056;28;20504;-70
2022/02/23 04:16:29;;;;;;;15.38;5.03;;;8.00;99.90;;;;;;5096012;28;20020;-69
2022/02/23 04:18:55;;;;;;;17.90;4.22;;;8.00;99.90;;;;;;5095871;28;20043;-72
2022/02/23 04:21:21;;;;;;;15.43;4.10;;;8.00;99.90;;;;;;5095917;28;20138;-74
2022/02/23 04:23:47;;;;;;;12.52;3.42;;;7.90;99.90;;;;;;5095841;28;20016;-74
2022/02/23 04:26:14;;;;;;;14.13;4.22;;;7.90;99.90;;;;;;5095819;28;20028;-74
2022/02/23 04:28:39;;;;;;;10.30;3.85;;;7.90;99.90;;;;;;5095747;28;20032;-74
2022/02/23 04:31:05;;;;;;;18.98;4.90;;;7.90;99.90;;;;;;5095741;28;20073;-73
2022/02/23 04:33:31;;;;;;;19.10;5.85;;;7.90;99.90;;;;;;5095703;28;20367;-72
2022/02/23 04:35:57;;;;;;;18.25;5.85;;;7.90;99.90;;;;;;5095618;28;20107;-70
2022/02/23 04:38:23;;;;;;;20.60;6.07;;;7.80;99.90;;;;;;5095781;28;20028;-72
2022/02/23 04:40:48;;;;;;;19.52;5.40;;;7.90;99.90;;;;;;5095528;28;20012;-72
2022/02/23 04:43:15;;;;;;;21.63;5.30;;;7.90;99.90;;;;;;5095493;28;20482;-75
2022/02/23 04:45:41;;;;;;;14.93;6.35;;;7.90;99.90;;;;;;5095400;28;20016;-72
2022/02/23 04:48:07;;;;;;;15.77;4.43;;;7.90;99.90;;;;;;5095965;28;20024;-73
2022/02/23 04:50:33;;;;;;;17.45;5.47;;;8.00;99.90;;;;;;5095395;28;20509;-73
2022/02/23 04:52:59;;;;;;;19.90;5.10;;;8.00;99.90;;;;;;5095523;28;20036;-73
2022/02/23 04:55:24;;;;;;;19.52;4.60;;;8.00;99.90;;;;;;5095227;28;20024;-74
2022/02/23 04:57:50;;;;;;;15.65;5.10;;;8.00;99.90;;;;;;5095398;28;20157;-71
2022/02/23 05:00:16;;;;;;;18.95;4.82;;;8.10;99.90;;;;;;5095125;28;20367;-70
2022/02/23 05:02:42;;;;;;;19.92;4.93;;;8.10;99.90;;;;;;5095080;28;20035;-70
2022/02/23 05:05:08;;;;;;;16.25;4.75;;;8.00;99.90;;;;;;5094861;28;20040;-74
2022/02/23 05:07:34;;;;;;;19.17;4.55;;;8.00;99.90;;;;;;5095180;28;20036;-72
2022/02/23 05:10:01;;;;;;;13.52;3.85;;;8.00;99.90;;;;;;5094856;28;20024;-73
2022/02/23 05:12:26;;;;;;;14.63;4.30;;;8.10;99.90;;;;;;5093689;28;20028;-72
2022/02/23 05:14:53;;;;;;;16.92;4.78;;;8.10;99.90;;;;;;5095244;28;20111;-70
2022/02/23 05:17:19;;;;;;;18.95;4.53;;;8.10;99.90;;;;;;5094958;28;20078;-69
2022/02/23 05:19:45;;;;;;;16.50;4.30;;;8.10;99.90;;;;;;5094760;28;20020;-73
2022/02/23 05:22:11;;;;;;;12.70;4.20;;;8.20;99.90;;;;;;5094981;28;20023;-74
2022/02/23 05:24:37;;;;;;;16.83;3.95;;;8.10;99.90;;;;;;5094650;28;20099;-73
2022/02/23 05:27:04;;;;;;;11.73;3.63;;;8.00;99.90;;;;;;5094665;28;20525;-74
2022/02/23 05:29:33;;;;;;;16.35;3.90;;;8.00;99.90;;;;;;5094598;28;20108;-74
2022/02/23 05:31:59;;;;;;;10.77;3.72;;;8.10;99.90;;;;;;5095073;28;20027;-71
2022/02/23 05:34:25;;;;;;;15.82;4.10;;;8.20;99.90;;;;;;5094534;28;20016;-71
2022/02/23 05:36:51;;;;;;;14.45;4.45;;;8.10;99.90;;;;;;5095285;28;20028;-73
2022/02/23 05:39:17;;;;;;;15.10;4.32;;;8.00;99.90;;;;;;5094576;28;20056;-72
2022/02/23 05:41:43;;;;;;;18.80;6.20;;;8.00;99.90;;;;;;5094370;28;20067;-73
2022/02/23 05:44:09;;;;;;;17.52;5.25;;;8.00;99.90;;;;;;5094600;28;20031;-72
2022/02/23 05:46:35;;;;;;;15.10;3.97;;;8.00;99.90;;;;;;5094286;28;20052;-73
2022/02/23 05:49:00;;;;;;;17.48;4.97;;;8.00;99.90;;;;;;5094226;28;20028;-69
2022/02/23 05:51:36;;;;;;;16.30;5.00;;;8.00;99.90;;;;;;5094673;28;20028;-71
2022/02/23 05:54:04;;;;;;;14.13;4.22;;;8.00;99.90;;;;;;5094392;28;20020;-70
2022/02/23 05:56:30;;;;;;;12.80;4.00;;;7.90;99.90;;;;;;5094132;28;20020;-71
2022/02/23 05:58:56;;;;;;;16.33;5.82;;;7.90;99.90;;;;;;5094259;28;20035;-71
2022/02/23 06:01:22;;;;;;;17.17;6.30;;;8.00;99.90;;;;;;5093971;28;20429;-73
2022/02/23 06:03:48;;;;;;;16.70;4.18;;;8.00;99.90;;;;;;5093759;28;20020;-70
2022/02/23 06:06:14;;;;;;;14.02;5.00;;;8.00;99.90;;;;;;5093818;28;20436;-70
2022/02/23 06:08:40;;;;;;;19.90;7.70;;;8.00;99.90;;;;;;5093939;28;20028;-71
2022/02/23 06:11:06;;;;;;;25.90;11.85;;;8.00;99.90;;;;;;5093816;28;20036;-72
2022/02/23 06:13:32;;;;;;;17.40;5.82;;;8.00;99.90;;;;;;5093740;28;20145;-72
2022/02/23 06:15:58;;;;;;;14.88;4.72;;;8.00;99.90;;;;;;5093789;28;20028;-70
2022/02/23 06:18:24;;;;;;;16.95;7.15;;;8.00;99.90;;;;;;5093583;28;20421;-73
2022/02/23 06:20:50;;;;;;;19.33;5.05;;;8.00;99.90;;;;;;5093642;28;20072;-71
2022/02/23 06:23:16;;;;;;;14.95;3.85;;;8.10;99.90;;;;;;5093550;28;20020;-74
2022/02/23 06:25:42;;;;;;;15.93;3.95;;;8.00;99.90;;;;;;5093568;28;20031;-70
2022/02/23 06:28:07;;;;;;;14.82;4.35;;;8.00;99.90;;;;;;5093533;28;20500;-74
2022/02/23 06:30:33;;;;;;;24.48;5.22;;;8.10;99.90;;;;;;5093803;28;20039;-71
2022/02/23 06:32:59;;;;;;;15.10;4.90;;;8.10;99.90;;;;;;5093754;28;20020;-71
2022/02/23 06:35:24;;;;;;;16.98;4.47;;;8.10;99.90;;;;;;5093488;28;20039;-71
2022/02/23 06:37:51;;;;;;;13.40;4.53;;;8.10;99.90;;;;;;5093894;28;20024;-71
2022/02/23 06:40:16;;;;;;;28.42;8.73;;;8.00;99.90;;;;;;5093360;28;20094;-71
2022/02/23 06:42:42;;;;;;;21.65;10.07;;;8.00;99.90;;;;;;5093382;28;20426;-75
2022/02/23 06:45:09;;;;;;;26.75;6.82;;;8.10;99.90;;;;;;5093265;28;20059;-73
2022/02/23 06:47:34;;;;;;;19.83;4.85;;;8.10;99.90;;;;;;5093291;28;20024;-73
2022/02/23 06:50:00;;;;;;;13.88;4.60;;;8.10;99.90;;;;;;5093263;28;20027;-71
2022/02/23 06:52:29;;;;;;;19.70;4.47;;;8.10;99.90;;;;;;5092011;28;20032;-69
2022/02/23 06:54:55;;;;;;;16.33;4.07;;;8.10;99.90;;;;;;5093424;28;20020;-75
2022/02/23 06:57:21;;;;;;;17.08;4.50;;;8.10;99.90;;;;;;5093398;28;20055;-72
2022/02/23 06:59:47;;;;;;;15.32;4.55;;;8.10;99.90;;;;;;5093215;28;20091;-74
2022/02/23 07:02:13;;;;;;;18.73;6.63;;;8.10;99.90;;;;;;5093442;28;20103;-75
2022/02/23 07:04:39;;;;;;;13.55;4.55;;;8.10;99.90;;;;;;5093008;28;20070;-69
2022/02/23 07:07:05;;;;;;;18.77;5.18;;;8.10;99.90;;;;;;5093131;28;20012;-70
2022/02/23 07:09:32;;;;;;;17.60;5.05;;;8.10;99.90;;;;;;5093330;28;20068;-69
2022/02/23 07:11:57;;;;;;;15.77;5.05;;;8.10;99.90;;;;;;5093072;28;20074;-69
2022/02/23 07:14:23;;;;;;;18.13;7.45;;;8.20;99.90;;;;;;5093080;28;20482;-70
2022/02/23 07:16:49;;;;;;;19.48;6.60;;;8.20;99.90;;;;;;5093020;28;20044;-70
2022/02/23 07:19:16;;;;;;;11.07;3.13;;;8.30;99.90;;;;;;5093210;28;20031;-74
2022/02/23 07:21:42;;;;;;;30.20;11.55;;;8.30;99.90;;;;;;5093045;28;20474;-76
2022/02/23 07:24:07;;;;;;;18.15;5.13;;;8.30;99.90;;;;;;5092956;28;20149;-73
2022/02/23 07:26:33;;;;;;;20.90;4.22;;;8.30;99.90;;;;;;5093015;28;20497;-73
2022/02/23 07:28:59;;;;;;;15.00;4.32;;;8.30;99.90;;;;;;5093203;28;20028;-75
2022/02/23 07:31:26;;;;;;;16.67;4.18;;;8.40;99.90;;;;;;5093543;28;20020;-73
2022/02/23 07:33:52;;;;;;;16.65;4.07;;;8.50;99.90;;;;;;5093199;28;20044;-73
2022/02/23 07:36:18;;;;;;;19.48;4.53;;;8.50;99.90;;;;;;5095373;28;20077;-74
2022/02/23 07:38:45;;;;;;;19.58;4.65;;;8.60;99.90;;;;;;5096621;28;20028;-72
2022/02/23 07:41:13;;;;;;;12.13;3.42;;;8.60;99.90;;;;;;5096678;28;20050;-73
2022/02/23 07:43:40;;;;;;;1100.35;113.55;;;8.60;99.90;;;;;;5096629;28;20089;-74
2022/02/23 07:46:10;;;;;;;;;;;8.60;99.90;;;;;;5097170;28;20031;-74
2022/02/23 07:48:37;;;;;;;;;;;8.70;99.90;;;;;;5095704;28;19904;-73
2022/02/23 07:51:04;;;;;;;15.32;5.78;;;8.90;99.90;;;;;;5096545;28;19997;-61
2022/02/23 07:53:30;;;;;;;18.23;4.72;;;8.90;99.90;;;;;;5096753;28;20028;-73
2022/02/23 07:55:56;;;;;;;19.08;5.25;;;8.90;99.90;;;;;;5096332;28;20024;-71
2022/02/23 07:58:22;;;;;;;13.05;4.05;;;8.90;99.90;;;;;;5096350;28;20031;-73
2022/02/23 08:00:48;;;;;;;18.67;5.57;;;9.00;99.90;;;;;;5096624;28;20019;-73
2022/02/23 08:03:14;;;;;;;18.88;6.70;;;9.20;99.90;;;;;;5096254;28;20021;-72
2022/02/23 08:05:40;;;;;;;18.35;4.63;;;9.40;99.90;;;;;;5095812;28;20043;-74
2022/02/23 08:08:06;;;;;;;21.98;5.43;;;9.50;99.90;;;;;;5096395;28;20032;-73
2022/02/23 08:10:32;;;;;;;16.65;4.60;;;9.60;99.90;;;;;;5096438;28;20024;-72
2022/02/23 08:12:58;;;;;;;16.55;4.50;;;9.70;99.90;;;;;;5096339;28;20034;-71
2022/02/23 08:20:56;;;;;;;14.90;3.92;;;10.10;99.90;;;;;;5096187;28;20030;-72
2022/02/23 08:23:22;;;;;;;14.43;4.40;;;;;;;;;;5095886;28;20020;-72
2022/02/23 08:25:48;;;;;;;15.43;5.03;;;;;;;;;;5095889;28;20020;-72
2022/02/23 08:28:15;;;;;;;11.95;5.18;;;;;;;;;;5095746;28;20058;-74
2022/02/23 08:30:42;;;;;;;20.92;6.30;;;;;;;;;;5095741;28;20052;-74
2022/02/23 08:33:08;;;;;;;15.32;5.50;;;;;;;;;;5095662;28;20039;-72
2022/02/23 08:35:34;;;;;;;15.50;5.75;;;;;;;;;;5095644;28;20020;-72
2022/02/23 08:38:00;;;;;;;18.73;5.25;;;;;;;;;;5095489;28;20031;-72
2022/02/23 08:40:29;;;;;;;16.65;5.35;;;;;;;;;;5094260;28;20016;-73
2022/02/23 08:42:55;;;;;;;18.88;5.00;;;;;;;;;;5095515;28;20035;-73
2022/02/23 08:45:21;;;;;;;19.65;5.00;;;;;;;;;;5095431;28;20029;-73
2022/02/23 08:47:47;;;;;;;17.58;5.00;;;;;;;;;;5095121;28;20032;-72
2022/02/23 08:50:13;;;;;;;17.52;5.45;;;;;;;;;;5095613;28;20089;-72
2022/02/23 08:52:39;;;;;;;13.70;5.22;;;;;;;;;;5095279;28;20383;-74
2022/02/23 08:55:07;;;;;;;14.30;4.95;;;;;;;;;;5095192;28;20134;-72
2022/02/23 08:57:33;;;;;;;15.82;4.90;;;;;;;;;;5093798;28;20032;-72
2022/02/23 08:59:59;;;;;;;23.88;5.95;;;;;;;;;;5095437;28;20016;-73
2022/02/23 09:02:25;;;;;;;13.45;5.63;;;;;;;;;;5095076;28;20480;-73
2022/02/23 09:04:51;;;;;;;14.00;5.25;;;;;;;;;;5094853;28;20075;-73
2022/02/23 09:07:17;;;;;;;14.75;4.72;;;;;;;;;;5094997;28;20056;-73
2022/02/23 09:09:43;;;;;;;18.65;5.00;;;;;;;;;;5094962;28;20020;-73
2022/02/23 09:12:09;;;;;;;19.00;5.82;;;;;;;;;;5094898;28;20549;-73
2022/02/23 09:14:35;;;;;;;18.63;5.40;;;;;;;;;;5093637;28;20115;-73
2022/02/23 09:17:01;;;;;;;29.80;15.23;;;;;;;;;;5095074;28;20052;-72
2022/02/23 09:19:27;;;;;;;18.48;6.60;;;;;;;;;;5094729;28;20027;-72
2022/02/23 09:21:53;;;;;;;20.83;4.88;;;;;;;;;;5095001;28;20038;-74
2022/02/23 09:24:20;;;;;;;19.67;5.05;;;;;;;;;;5094617;28;20497;-73
2022/02/23 09:26:46;;;;;;;15.35;4.50;;;;;;;;;;5095193;28;20020;-72
2022/02/23 09:29:12;;;;;;;15.55;4.57;;;;;;;;;;5094596;28;20035;-73
2022/02/23 09:31:38;;;;;;;18.98;8.38;;;;;;;;;;5093223;28;20028;-74
2022/02/23 09:34:04;;;;;;;15.02;5.65;;;;;;;;;;5094500;28;20027;-73
2022/02/23 09:36:30;;;;;;;25.98;13.35;;;;;;;;;;5094448;28;20032;-73
2022/02/23 09:38:56;;;;;;;16.27;4.78;;;;;;;;;;5094355;28;20035;-73
2022/02/23 09:41:24;;;;;;;14.88;4.72;;;;;;;;;;5094331;28;20485;-73
2022/02/23 09:43:53;;;;;;;20.60;7.70;;;;;;;;;;5094289;28;20016;-73
2022/02/23 09:46:22;;;;;;;40.97;10.40;;;10.20;99.90;;;;;;5094455;28;20106;-72
2022/02/23 09:48:49;;;;;;;26.02;10.57;;;12.50;99.90;;;;;;5094362;28;20027;-72
2022/02/23 09:51:15;;;;;;;19.00;4.95;;;12.50;99.90;;;;;;5094228;28;20028;-74
2022/02/23 09:53:45;;;;;;;15.90;4.55;;;12.70;99.90;;;;;;5094103;28;20429;-74
2022/02/23 09:56:18;;;;;;;17.35;4.70;;;12.90;99.90;;;;;;5094390;28;20035;-72
2022/02/23 09:58:44;;;;;;;15.75;5.55;;;12.70;99.90;;;;;;5093650;28;20486;-75
2022/02/23 10:01:10;;;;;;;19.42;5.57;;;12.50;99.90;;;;;;5094007;28;20027;-73
2022/02/23 10:03:38;;;;;;;16.48;4.72;;;12.20;99.90;;;;;;5093790;28;20026;-72
2022/02/23 10:06:04;;;;;;;18.58;4.75;;;12.20;99.90;;;;;;5092445;28;20028;-72
2022/02/23 10:08:37;;;;;;;18.25;5.30;;;12.40;99.90;;;;;;5093863;28;20027;-73
2022/02/23 10:11:04;;;;;;;16.30;4.65;;;12.70;99.90;;;;;;5094484;28;20570;-73
2022/02/23 10:13:29;;;;;;;20.38;5.72;;;13.20;99.90;;;;;;5093781;28;20024;-72
2022/02/23 10:15:58;;;;;;;17.08;5.68;;;13.50;99.90;;;;;;5093714;28;20081;-72
2022/02/23 10:18:28;;;;;;;19.73;5.30;;;13.60;99.90;;;;;;5092342;28;20484;-72
2022/02/23 10:20:53;;;;;;;25.00;5.83;;;13.80;99.90;;;;;;5094014;28;20085;-73
2022/02/23 10:23:20;;;;;;;18.27;5.53;;;13.80;99.90;;;;;;5093651;28;20032;-72
2022/02/23 10:25:56;;;;;;;18.02;6.15;;;13.80;99.90;;;;;;5093580;28;20098;-72
2022/02/23 10:28:26;;;;;;;18.67;5.30;;;13.80;99.90;;;;;;5093870;28;20028;-72
2022/02/23 10:30:57;;;;;;;22.27;5.32;;;13.70;99.90;;;;;;5093889;28;20027;-72
2022/02/23 10:33:26;;;;;;;15.30;4.80;;;13.60;99.90;;;;;;5092278;28;20028;-72
2022/02/23 10:35:58;;;;;;;18.23;5.88;;;13.40;99.90;;;;;;5093471;28;20016;-72
2022/02/23 10:38:27;;;;;;;17.63;5.28;;;13.40;99.90;;;;;;5093948;28;20063;-72
2022/02/23 10:40:57;;;;;;;21.33;6.32;;;13.30;99.90;;;;;;5093397;28;20078;-72
2022/02/23 10:43:40;;;;;;;16.30;4.07;;;13.10;99.90;;;;;;5094029;28;20029;-72
2022/02/23 10:46:13;;;;;;;14.95;3.90;;;12.90;99.90;;;;;;5093644;28;20473;-72
2022/02/23 10:48:38;;;;;;;17.98;4.05;;;12.80;99.90;;;;;;5093312;28;20057;-72
2022/02/23 10:51:05;;;;;;;14.68;4.60;;;12.90;99.90;;;;;;5093285;28;20024;-72
2022/02/23 10:53:32;;;;;;;15.48;4.32;;;12.90;99.90;;;;;;5093296;28;20031;-72
2022/02/23 10:55:59;;;;;;;14.98;6.78;;;13.30;99.90;;;;;;5091917;28;20051;-73
2022/02/23 10:58:29;;;;;;;21.02;6.57;;;13.50;99.90;;;;;;5093177;28;20031;-72
2022/02/23 11:01:02;;;;;;;16.00;5.10;;;13.80;99.90;;;;;;5091681;28;20498;-72
2022/02/23 11:03:28;;;;;;;16.52;6.05;;;14.10;99.90;;;;;;5093211;28;20436;-72
2022/02/23 11:05:54;;;;;;;18.13;9.30;;;14.00;99.90;;;;;;5093050;28;20125;-72
2022/02/23 11:08:21;;;;;;;19.48;5.22;;;14.20;99.90;;;;;;5093127;28;20060;-73
2022/02/23 11:10:48;;;;;;;16.10;4.55;;;14.30;99.90;;;;;;5096237;28;20513;-72
2022/02/23 11:13:15;;;;;;;11.65;3.75;;;14.30;99.90;;;;;;5097549;28;20024;-73
2022/02/23 11:15:50;;;;;;;15.40;3.65;;;14.30;99.90;;;;;;5097264;28;20020;-72
2022/02/23 11:18:17;;;;;;;15.27;3.80;;;14.40;99.90;;;;;;5097139;28;20028;-72
2022/02/23 11:20:45;;;;;;;14.68;4.68;;;14.50;99.90;;;;;;5097141;28;20020;-72
2022/02/23 11:23:22;;;;;;;16.92;5.22;;;14.50;99.90;;;;;;5097098;28;20069;-72
2022/02/23 11:25:50;;;;;;;15.35;4.93;;;14.60;99.90;;;;;;5097026;28;20017;-72
2022/02/23 11:28:19;;;;;;;22.58;10.68;;;15.00;99.90;;;;;;5096965;28;20105;-72
2022/02/23 11:30:45;;;;;;;17.45;4.82;;;15.30;99.90;;;;;;5096878;28;20027;-72
2022/02/23 11:33:11;;;;;;;17.27;5.18;;;15.50;99.90;;;;;;5096852;28;20056;-72
2022/02/23 11:35:46;;;;;;;16.52;5.05;;;15.70;99.90;;;;;;5097093;28;20052;-72
2022/02/23 11:38:27;;;;;;;33.25;5.47;;;16.00;99.90;;;;;;5096700;28;20020;-73
2022/02/23 11:40:56;;;;;;;10.45;2.33;;;15.60;99.90;;;;;;5097073;28;20012;-72
2022/02/23 11:43:42;;;;;;;10.65;2.80;;;15.40;99.90;;;;;;5096718;28;20024;-72
2022/02/23 11:46:08;;;;;;;13.10;3.72;;;15.30;99.90;;;;;;5097189;28;20012;-72
2022/02/23 11:48:49;;;;;;;8.68;3.22;;;15.40;99.90;;;;;;5096604;28;20103;-72
2022/02/23 11:51:24;;;;;;;9.73;3.15;;;15.40;99.90;;;;;;5096578;28;20020;-72
2022/02/23 11:53:50;;;;;;;10.45;2.92;;;15.50;99.90;;;;;;5096464;28;20038;-72
2022/02/23 11:56:17;;;;;;;13.65;3.25;;;15.30;99.90;;;;;;5096411;28;20024;-73
2022/02/23 11:58:45;;;;;;;12.40;3.25;;;15.20;99.90;;;;;;5096286;28;20032;-72
2022/02/23 12:01:11;;;;;;;10.13;3.20;;;15.30;99.90;;;;;;5096856;28;20020;-72
2022/02/23 12:03:36;;;;;;;7.20;1.98;;;15.10;99.90;;;;;;5096317;28;20031;-72
2022/02/23 12:06:06;;;;;;;14.73;3.28;;;15.20;99.90;;;;;;5096279;28;20024;-72
2022/02/23 12:08:31;;;;;;;14.83;5.80;;;15.30;99.90;;;;;;5096227;28;20035;-73
2022/02/23 12:11:13;;;;;;;13.50;5.93;;;15.30;99.90;;;;;;5096383;28;20024;-73
2022/02/23 12:13:49;;;;;;;13.68;4.75;;;15.40;99.90;;;;;;5096638;28;20016;-72
2022/02/23 12:16:22;;;;;;;11.30;3.10;;;15.50;99.90;;;;;;5096392;28;20028;-72
2022/02/23 12:18:52;;;;;;;15.02;3.47;;;15.40;99.90;;;;;;5096540;28;20369;-72
2022/02/23 12:21:19;;;;;;;14.45;4.75;;;15.60;99.90;;;;;;5095340;28;20131;-72
2022/02/23 12:23:46;;;;;;;12.45;4.40;;;15.60;99.90;;;;;;5095900;28;20016;-72
2022/02/23 12:26:17;;;;;;;10.95;3.40;;;15.60;99.90;;;;;;5095852;28;20024;-73
2022/02/23 12:28:48;;;;;;;10.00;2.40;;;15.40;99.90;;;;;;5095845;28;20549;-72
2022/02/23 12:31:22;;;;;;;11.50;3.55;;;15.40;99.90;;;;;;5096161;28;20069;-72
2022/02/23 12:33:55;;;;;;;12.68;4.13;;;15.70;99.90;;;;;;5096391;28;20028;-72
2022/02/23 12:36:39;;;;;;;16.25;4.55;;;16.00;99.90;;;;;;5096001;28;20024;-72
2022/02/23 12:39:09;;;;;;;15.82;7.22;;;15.90;99.90;;;;;;5096215;28;20065;-73
2022/02/23 12:41:36;;;;;;;11.75;3.10;;;15.70;99.90;;;;;;5096021;28;20028;-73
2022/02/23 12:44:09;;;;;;;12.63;2.83;;;15.60;99.90;;;;;;5095811;28;20024;-72
2022/02/23 12:46:44;;;;;;;10.18;2.80;;;15.60;99.90;;;;;;5095838;28;20024;-72
2022/02/23 12:49:11;;;;;;;10.95;2.95;;;15.80;99.90;;;;;;5095476;28;20052;-72
2022/02/23 12:51:37;;;;;;;16.73;4.15;;;15.80;99.90;;;;;;5095392;28;20020;-72
2022/02/23 12:54:06;;;;;;;13.63;3.10;;;15.90;99.90;;;;;;5095263;28;20367;-73
2022/02/23 12:56:52;;;;;;;11.23;2.85;;;15.90;99.90;;;;;;5095220;28;20448;-73
2022/02/23 12:59:20;;;;;;;11.60;2.90;;;16.10;99.90;;;;;;5095172;28;20075;-72